Baie Verte, Canada
Current Conditions -  °F | °C
As of 2:00 PM on Thursday 27 Nov 2014 (Local Time) from CWDH Reporting Station
Overcast Overcast  
Wind Chill: 19°   Ceiling: Unl
Heat Index: 29°   Visibility: 0.5mi
Dew Point: 24°   Wind: 13mph
Humidity: 82%   Direction: 40°NE
Pressure: 29.56"   Gusts: NA
Location:  49.92°N, 56.18°W
Report Text: CWDH 271700Z AUTO 04011KT 1/2SM OVC000 M02/M04 A2956 RMK SLP013 PK WND 03018/// T10171044 70018 WSI/SWOB
Loading
Personal Weather Stations






























Interactive Weather Map New forecast layout! Learn more

10-Day Weather Forecast

Advertisements
Track Severe Weather on mobile